• Join FlightAware (Why Join?)
  • Login
  • US Flag 
05:57PM EDT


 

Airport Tracker/Info


-or-


 

Live Flight TrackerFlight Track Log ✈ SWA3044 ✈ 27-Apr-2013 ✈ KTPA - KMSY

Flight Track Log - Related Links

Times and Time Zones

All times are in EDT time to prevent confusion due to time zone crossing. See the SWA3044 flight status page for this flight to view local times or setup timezone preferences in your user account.

Time Position Orientation Groundspeed Altitude Reporting Facility
EDT Latitude Longitude Course Direction KTS MPH feet Rate Location/Type
12:27PM 28.0667 -82.5333 360° North 227 261 3,500  Level Tampa TRACON
12:28PM 28.0833 -82.6000 286° West 260 299 6,500 2,460 Climbing Tampa TRACON
12:29PM 28.0333 -82.6667 230° Southwest 297 342 8,500 2,160 Climbing Tampa TRACON
12:31PM 27.8631 -82.8403 222° Southwest 357 411 14,000 2,160 Climbing Miami Center
12:32PM 27.7886 -82.9256 225° Southwest 373 429 16,000 1,920 Climbing Miami Center
12:33PM 27.7856 -83.0450 268° West 359 413 17,900 1,800 Climbing Miami Center
12:34PM 27.7906 -83.1742 273° West 377 434 19,700 1,860 Climbing Miami Center
12:35PM 27.7992 -83.3061 274° West 405 466 21,700 1,800 Climbing Miami Center
12:36PM 27.7808 -83.4386 261° West 419 482 23,300 1,560 Climbing Miami Center
12:37PM 27.7394 -83.5653 250° West 425 489 24,900 1,620 Climbing Miami Center
12:38PM 27.6894 -83.6936 246° West 435 501 26,600 1,620 Climbing Miami Center
12:39PM 27.7064 -83.8233 278° West 421 484 28,200 1,560 Climbing Miami Center
12:40PM 27.7269 -83.9558 280° West 426 490 29,800 1,620 Climbing Miami Center
12:41PM 27.7414 -84.0833 277° West 426 490 31,500 1,020 Climbing Miami Center
12:42PM 27.7517 -84.2081 275° West 421 484 31,900 120 Climbing Miami Center
12:44PM 27.7819 -84.4194 279° West 422 486 31,900  Level Jacksonville Center
12:45PM 27.7950 -84.5464 277° West 422 486 31,900  Level Jacksonville Center
12:46PM 27.8206 -84.6758 283° West 422 486 31,900  Level Jacksonville Center
12:47PM 27.8292 -84.7933 275° West 428 493 31,900  Level Jacksonville Center
12:48PM 27.8439 -84.9250 277° West 427 491 31,900  Level Jacksonville Center
12:49PM 27.8586 -85.0544 277° West 427 491 31,900  Level Jacksonville Center
12:50PM 27.8750 -85.1861 278° West 427 491 31,900  Level Jacksonville Center
12:51PM 27.9000 -85.3064 283° West 420 483 31,900  Level Jacksonville Center
12:52PM 27.9369 -85.4342 288° West 420 483 31,900  Level Jacksonville Center
12:53PM 27.9742 -85.5572 289° West 420 483 31,900  Level Jacksonville Center
12:54PM 28.0131 -85.6900 288° West 428 493 31,900  Level Jacksonville Center
12:55PM 28.0503 -85.8086 290° West 421 484 31,900  Level Jacksonville Center
12:56PM 28.0869 -85.9342 288° West 429 494 31,900  Level Jacksonville Center
12:57PM 28.1256 -86.0625 289° West 421 484 31,900  Level Jacksonville Center
12:58PM 28.1600 -86.1811 288° West 421 484 31,900  Level Jacksonville Center
12:59PM 28.2006 -86.3119 289° West 428 493 31,900  Level Jacksonville Center
01:00PM 28.2350 -86.4286 289° West 411 473 31,900  Level Jacksonville Center
01:01PM 28.2711 -86.5525 288° West 418 481 31,900  Level Jacksonville Center
01:02PM 28.3131 -86.6906 289° West 427 491 31,900  Level Jacksonville Center
01:03PM 28.3489 -86.8122 289° West 427 491 31,900  Level Jacksonville Center
01:04PM 28.3825 -86.9361 287° West 427 491 31,900  Level Jacksonville Center
01:05PM 28.4244 -87.0653 290° West 427 491 31,900  Level Jacksonville Center
01:06PM 28.4558 -87.1847 287° West 421 484 31,900  Level Jacksonville Center
01:07PM 28.4933 -87.3114 289° West 421 484 31,900  Level Jacksonville Center
01:08PM 28.5328 -87.4406 289° West 421 484 31,900  Level Jacksonville Center
01:10PM 28.6136 -87.7336 288° West 420 483 31,900  Level Houston Center
01:11PM 28.6483 -87.8594 287° West 417 480 31,900  Level Houston Center
01:12PM 28.6847 -87.9872 288° West 423 487 31,900  Level Houston Center
01:13PM 28.7192 -88.1078 288° West 424 488 31,900  Level Houston Center
01:14PM 28.7550 -88.2367 288° West 427 491 31,900  Level Houston Center
01:15PM 28.7975 -88.3919 287° West 429 494 31,900  Level Houston Center
01:16PM 28.8331 -88.5206 288° West 428 493 31,900  Level Houston Center
01:17PM 28.8689 -88.6483 288° West 425 489 31,900  Level Houston Center
01:18PM 28.9300 -88.7617 302° West 432 497 31,900  Level Houston Center
01:20PM 29.0064 -88.8653 310° West 428 493 31,900 -840 Level Houston Center
01:21PM 29.0842 -88.9678 311° West 427 491 30,200 -2,520 Descending Houston Center
01:22PM 29.1614 -89.0717 310° West 430 495 26,800 -3,120 Descending Houston Center
01:23PM 29.2547 -89.1969 311° West 431 496 23,900 -2,820 Descending Houston Center
01:24PM 29.3353 -89.3050 311° West 443 510 21,100 -2,520 Descending Houston Center
01:25PM 29.4111 -89.4075 310° West 430 495 18,700 -2,280 Descending Houston Center
01:25PM 29.4564 -89.4650 312° West 408 470 17,500 -2,160 Descending Houston Center
01:26PM 29.4822 -89.5061 306° West 413 475 16,500 -2,340 Descending Houston Center
01:27PM 29.5525 -89.5989 311° West 395 455 14,000 -2,460 Descending Houston Center
01:28PM 29.6203 -89.6883 311° West 380 437 11,500 -2,340 Descending Houston Center
01:28PM 29.6497 -89.7261 312° West 361 415 10,900 -600 Descending Houston Center
01:29PM 29.6853 -89.7711 312° West 360 414 10,900 -180 Level Houston Center
01:29PM 29.7172 -89.8094 314° West 332 382 10,700 -600 Descending Houston Center
01:30PM 29.7467 -89.8472 312° West 337 388 10,300 -1,140 Descending Houston Center
01:30PM 29.7742 -89.8811 313° West 297 342 9,600 -1,500 Descending Houston Center
01:31PM 29.8125 -89.9281 313° West 298 343 8,800 -1,020 Descending Houston Center
01:32PM 29.8658 -89.9958 312° West 289 333 7,900 -1,200 Descending Houston Center
01:33PM 29.9208 -90.0611 314° West 284 327 6,400 -1,500 Descending Houston Center
01:34PM 29.9761 -90.1250 315° West 283 326 4,900 -1,560 Descending Houston Center
01:35PM 30.0350 -90.1828 320° Northwest 288 331 3,200 -1,500 Descending Houston Center
01:36PM 30.1086 -90.1908 355° North 287 330 1,800 -720 Descending Houston Center
01:37PM 30.0911 -90.2383 247° West 240 276 1,800 -540 Level Houston Center
01:38PM 30.0397 -90.2331 175° South 181 208 800 -840 Descending Houston Center
01:39PM 30.0094 -90.2431 196° South 160 184 100 -720 Descending Houston Center